Terminal Aerodrome Forecast
Issued by NWS

Home | Current Version | Previous Version | Text Only | Print | Product List | Glossary On
Versions: 1 2 3 4 5 6 7 8 9 10 11 12 13 14
000
FTUS43 KICT 101100
TAFSLN
TAF
KSLN 101122Z 1012/1112 16013KT P6SM VCTS SCT050CB BKN100
      TEMPO 1012/1013 5SM TSRA FEW010 SCT035 OVC060CB
     FM101600 16018G27KT P6SM FEW050 SCT100
     FM110200 16013KT P6SM SKC=

USA.gov is the U.S. government's official web portal to all federal, state and local government web resources and services.